createdAt,value
2022-09-10T00:01:06.100Z,49.10
2022-09-10T00:03:32.710Z,49.10
2022-09-10T00:05:59.285Z,49.10
2022-09-10T00:08:26.012Z,49.70
2022-09-10T00:10:52.581Z,49.10
2022-09-10T00:13:20.923Z,49.10
2022-09-10T00:15:52.070Z,49.10
2022-09-10T00:18:19.739Z,49.10
2022-09-10T00:20:50.552Z,49.20
2022-09-10T00:23:19.051Z,49.20
2022-09-10T00:25:46.271Z,49.30
2022-09-10T00:28:13.108Z,49.30
2022-09-10T00:30:43.655Z,49.40
2022-09-10T00:33:10.343Z,49.30
2022-09-10T00:35:37.349Z,49.30
2022-09-10T00:38:04.258Z,49.40
2022-09-10T00:40:31.542Z,49.40
2022-09-10T00:42:58.319Z,49.40
2022-09-10T00:45:32.195Z,49.40
2022-09-10T00:48:04.064Z,49.40
2022-09-10T00:50:34.784Z,49.50
2022-09-10T00:53:05.872Z,49.30
2022-09-10T00:55:35.003Z,49.20
2022-09-10T00:58:02.877Z,49.20
2022-09-10T01:00:29.477Z,49.20
2022-09-10T01:02:56.045Z,49.20
2022-09-10T01:05:22.735Z,49.10
2022-09-10T01:07:49.376Z,49.10
2022-09-10T01:10:28.818Z,49.10
2022-09-10T01:13:21.693Z,49.10
2022-09-10T01:15:57.176Z,49.10
2022-09-10T01:18:28.155Z,49.10
2022-09-10T01:21:06.176Z,49.10
2022-09-10T01:23:51.568Z,49.10
2022-09-10T01:26:31.392Z,49.10
2022-09-10T01:29:03.411Z,49.10
2022-09-10T01:31:49.353Z,49.10
2022-09-10T01:34:26.029Z,49.20
2022-09-10T01:36:53.918Z,49.20
2022-09-10T01:39:20.591Z,49.30
2022-09-10T01:41:48.299Z,49.30
2022-09-10T01:44:39.983Z,50.00
2022-09-10T01:47:14.697Z,49.40
2022-09-10T01:50:14.351Z,49.40
2022-09-10T01:52:57.551Z,49.40
2022-09-10T01:55:48.395Z,49.50
2022-09-10T01:58:36.699Z,49.40
2022-09-10T02:01:24.714Z,49.40
2022-09-10T02:03:54.147Z,49.20
2022-09-10T02:06:22.369Z,49.30
2022-09-10T02:08:49.819Z,49.20
2022-09-10T02:11:16.424Z,49.20
2022-09-10T02:13:42.991Z,49.10
2022-09-10T02:16:12.354Z,49.10
2022-09-10T02:18:39.492Z,49.10
2022-09-10T02:21:06.351Z,49.10
2022-09-10T02:23:57.005Z,49.10
2022-09-10T02:26:25.018Z,49.10
2022-09-10T02:28:51.598Z,49.10
2022-09-10T02:31:18.698Z,49.10
2022-09-10T02:33:45.316Z,49.10
2022-09-10T02:36:11.891Z,49.10
2022-09-10T02:38:38.611Z,49.30
2022-09-10T02:41:05.243Z,49.10
2022-09-10T02:43:31.799Z,49.20
2022-09-10T02:45:58.731Z,49.20
2022-09-10T02:48:26.245Z,49.30
2022-09-10T02:50:53.565Z,49.30
2022-09-10T02:53:20.975Z,49.30
2022-09-10T02:55:47.870Z,49.40
2022-09-10T02:58:15.559Z,49.50
2022-09-10T03:00:42.721Z,49.50
2022-09-10T03:03:09.328Z,49.50
2022-09-10T03:05:38.283Z,49.50
2022-09-10T03:08:05.725Z,49.40
2022-09-10T03:10:33.042Z,49.50
2022-09-10T03:12:59.926Z,49.30
2022-09-10T03:15:26.513Z,49.30
2022-09-10T03:17:53.090Z,49.30
2022-09-10T03:20:22.894Z,49.20
2022-09-10T03:22:52.364Z,49.20
2022-09-10T03:25:19.468Z,49.10
2022-09-10T03:27:46.049Z,49.10
2022-09-10T03:30:12.984Z,49.00
2022-09-10T03:32:39.559Z,49.00
2022-09-10T03:35:06.318Z,49.00
2022-09-10T03:37:32.929Z,49.00
2022-09-10T03:39:59.550Z,49.00
2022-09-10T03:42:26.163Z,49.00
2022-09-10T03:44:52.733Z,49.10
2022-09-10T03:47:19.303Z,49.10
2022-09-10T03:49:45.887Z,49.10
2022-09-10T03:52:12.822Z,49.10
2022-09-10T03:54:39.971Z,49.20
2022-09-10T03:57:06.554Z,49.20
2022-09-10T03:59:33.136Z,49.30
2022-09-10T04:01:59.805Z,49.30
2022-09-10T04:04:26.507Z,49.40
2022-09-10T04:06:54.005Z,49.40
2022-09-10T04:09:20.630Z,49.40
2022-09-10T04:11:47.222Z,49.40
2022-09-10T04:14:13.853Z,49.40
2022-09-10T04:16:40.498Z,49.40
2022-09-10T04:19:07.358Z,49.40
2022-09-10T04:21:33.953Z,49.40
2022-09-10T04:24:00.654Z,49.20
2022-09-10T04:26:27.285Z,49.20
2022-09-10T04:28:53.844Z,49.10
2022-09-10T04:31:20.497Z,49.20
2022-09-10T04:33:47.173Z,49.10
2022-09-10T04:36:14.186Z,49.10
2022-09-10T04:38:42.055Z,49.10
2022-09-10T04:41:09.348Z,49.00
2022-09-10T04:43:36.573Z,49.10
2022-09-10T04:46:03.280Z,49.10
2022-09-10T04:48:29.863Z,49.00
2022-09-10T04:51:15.337Z,49.00
2022-09-10T04:53:43.038Z,49.10
2022-09-10T04:56:09.624Z,49.10
2022-09-10T04:58:38.940Z,49.00
2022-09-10T05:01:06.348Z,49.00
2022-09-10T05:03:33.327Z,49.10
2022-09-10T05:05:59.916Z,49.20
2022-09-10T05:08:26.484Z,49.20
2022-09-10T05:10:53.330Z,49.20
2022-09-10T05:13:19.913Z,49.30
2022-09-10T05:15:46.506Z,49.30
2022-09-10T05:18:13.156Z,49.30
2022-09-10T05:20:39.747Z,49.30
2022-09-10T05:23:06.361Z,49.30
2022-09-10T05:25:34.497Z,49.30
2022-09-10T05:28:01.554Z,49.30
2022-09-10T05:30:32.702Z,49.30
2022-09-10T05:33:00.509Z,49.30
2022-09-10T05:35:27.159Z,49.20
2022-09-10T05:37:53.727Z,49.10
2022-09-10T05:40:21.810Z,49.00
2022-09-10T05:42:49.201Z,49.10
2022-09-10T05:45:15.931Z,49.00
2022-09-10T05:47:43.823Z,49.00
2022-09-10T05:50:11.260Z,49.00
2022-09-10T05:52:37.843Z,49.00
2022-09-10T05:55:04.714Z,49.00
2022-09-10T05:57:31.369Z,48.90
2022-09-10T05:59:57.988Z,49.00
2022-09-10T06:02:24.681Z,49.00
2022-09-10T06:04:51.552Z,49.00
2022-09-10T06:07:18.257Z,49.00
2022-09-10T06:09:44.820Z,49.10
2022-09-10T06:12:11.402Z,49.00
2022-09-10T06:14:38.029Z,49.00
2022-09-10T06:17:04.617Z,49.20
2022-09-10T06:19:31.201Z,49.30
2022-09-10T06:21:57.802Z,49.30
2022-09-10T06:24:25.812Z,49.40
2022-09-10T06:26:52.388Z,49.30
2022-09-10T06:29:19.209Z,49.30
2022-09-10T06:31:47.019Z,49.40
2022-09-10T06:34:13.744Z,49.40
2022-09-10T06:36:41.414Z,49.40
2022-09-10T06:39:08.013Z,49.40
2022-09-10T06:41:35.060Z,49.40
2022-09-10T06:44:01.757Z,49.30
2022-09-10T06:49:15.141Z,49.20
2022-09-10T06:51:42.466Z,49.10
2022-09-10T06:54:09.031Z,49.10
2022-09-10T06:56:35.622Z,49.10
2022-09-10T06:59:02.826Z,49.10
2022-09-10T07:01:29.655Z,49.00
2022-09-10T07:03:57.567Z,49.00
2022-09-10T07:06:24.331Z,49.00
2022-09-10T07:08:55.230Z,49.00
2022-09-10T07:11:21.820Z,49.00
2022-09-10T07:13:50.452Z,49.00
2022-09-10T07:16:24.395Z,49.00
2022-09-10T07:18:51.446Z,49.00
2022-09-10T07:21:18.539Z,49.00
2022-09-10T07:23:46.428Z,49.00
2022-09-10T07:26:14.867Z,49.10
2022-09-10T07:28:42.769Z,49.20
2022-09-10T07:31:13.599Z,49.20
2022-09-10T07:33:40.411Z,49.30
2022-09-10T07:36:07.981Z,49.30
2022-09-10T07:38:34.798Z,49.30
2022-09-10T07:41:01.591Z,49.30
2022-09-10T07:43:28.159Z,49.30
2022-09-10T07:45:54.765Z,49.30
2022-09-10T07:48:21.409Z,49.30
2022-09-10T07:50:48.486Z,49.50
2022-09-10T07:53:15.300Z,49.30
2022-09-10T07:55:41.859Z,49.20
2022-09-10T07:58:08.433Z,49.10
2022-09-10T08:00:35.059Z,49.10
2022-09-10T08:03:03.077Z,49.00
2022-09-10T08:05:29.770Z,49.00
2022-09-10T08:07:57.086Z,49.00
2022-09-10T08:10:23.659Z,49.10
2022-09-10T08:12:50.243Z,49.10
2022-09-10T08:15:18.053Z,49.00
2022-09-10T08:17:44.635Z,49.10
2022-09-10T08:20:11.264Z,49.00
2022-09-10T08:22:37.839Z,49.00
2022-09-10T08:25:04.832Z,49.10
2022-09-10T08:27:32.514Z,49.10
2022-09-10T08:29:59.082Z,49.10
2022-09-10T08:32:25.709Z,49.10
2022-09-10T08:34:53.367Z,49.00
2022-09-10T08:37:19.955Z,49.00
2022-09-10T08:39:46.553Z,49.10
2022-09-10T08:42:22.456Z,49.10
2022-09-10T08:44:49.766Z,49.10
2022-09-10T08:47:27.055Z,49.10
2022-09-10T08:49:58.371Z,49.20
2022-09-10T08:52:35.577Z,49.20
2022-09-10T08:55:09.066Z,49.10
2022-09-10T08:57:42.086Z,49.20
2022-09-10T09:00:14.230Z,49.20
2022-09-10T09:03:07.434Z,49.20
2022-09-10T09:05:48.287Z,49.10
2022-09-10T09:08:21.769Z,49.10
2022-09-10T09:10:49.678Z,49.10
2022-09-10T09:13:32.056Z,49.00
2022-09-10T09:16:01.612Z,49.00
2022-09-10T09:18:34.359Z,49.00
2022-09-10T09:21:09.998Z,48.90
2022-09-10T09:24:11.822Z,49.00
2022-09-10T09:26:37.995Z,49.00
2022-09-10T09:29:07.838Z,48.90
2022-09-10T09:31:44.182Z,48.90
2022-09-10T09:34:19.125Z,48.90
2022-09-10T09:36:52.975Z,48.90
2022-09-10T09:39:27.612Z,48.90
2022-09-10T09:42:14.812Z,48.90
2022-09-10T09:44:57.357Z,49.00
2022-09-10T09:47:24.035Z,49.10
2022-09-10T09:49:50.617Z,49.00
2022-09-10T09:52:22.427Z,49.10
2022-09-10T09:57:42.603Z,49.10
2022-09-10T10:00:36.011Z,49.20
2022-09-10T10:03:25.215Z,49.20
2022-09-10T10:06:09.508Z,49.20
2022-09-10T10:08:42.973Z,49.20
2022-09-10T10:11:09.612Z,49.30
2022-09-10T10:13:43.497Z,49.20
2022-09-10T10:16:33.676Z,49.10
2022-09-10T10:19:00.249Z,49.00
2022-09-10T10:21:32.992Z,49.00
2022-09-10T10:24:00.489Z,48.90
2022-09-10T10:26:31.595Z,48.90
2022-09-10T10:28:59.821Z,48.90
2022-09-10T10:31:40.365Z,48.90
2022-09-10T10:34:37.288Z,48.90
2022-09-10T10:37:21.369Z,48.90
2022-09-10T10:39:50.739Z,48.90
2022-09-10T10:42:26.292Z,48.90
2022-09-10T10:45:14.195Z,48.90
2022-09-10T10:47:51.333Z,48.90
2022-09-10T10:50:32.298Z,48.90
2022-09-10T10:53:11.724Z,48.90
2022-09-10T10:55:56.975Z,49.00
2022-09-10T10:58:33.646Z,49.10
2022-09-10T11:01:14.261Z,49.00
2022-09-10T11:03:45.737Z,49.10
2022-09-10T11:06:20.653Z,49.10
2022-09-10T11:09:01.205Z,49.10
2022-09-10T11:11:31.618Z,49.10
2022-09-10T11:14:18.933Z,49.10
2022-09-10T11:16:49.295Z,49.10
2022-09-10T11:19:41.759Z,49.10
2022-09-10T11:22:18.744Z,49.10
2022-09-10T11:24:54.003Z,49.00
2022-09-10T11:27:32.189Z,49.00
2022-09-10T11:30:04.362Z,49.00
2022-09-10T11:32:53.426Z,48.90
2022-09-10T11:35:39.744Z,48.90
2022-09-10T11:38:34.728Z,48.90
2022-09-10T11:41:17.453Z,48.90
2022-09-10T11:43:53.657Z,48.90
2022-09-10T11:46:26.379Z,49.00
2022-09-10T11:48:57.892Z,49.00
2022-09-10T11:51:26.416Z,48.90
2022-09-10T11:53:53.253Z,48.90
2022-09-10T11:56:31.933Z,49.00
2022-09-10T11:59:04.984Z,49.00
2022-09-10T12:01:52.020Z,49.00
2022-09-10T12:04:35.756Z,49.10
2022-09-10T12:07:13.867Z,49.20
2022-09-10T12:10:05.296Z,49.20
2022-09-10T12:12:44.936Z,49.40
2022-09-10T12:15:21.177Z,49.40
2022-09-10T12:18:15.408Z,49.40
2022-09-10T12:20:48.584Z,49.40
2022-09-10T12:23:26.841Z,49.40
2022-09-10T12:26:13.533Z,49.50
2022-09-10T12:28:42.821Z,49.40
2022-09-10T12:31:11.419Z,49.50
2022-09-10T12:33:44.056Z,49.50
2022-09-10T12:36:14.512Z,49.50
2022-09-10T12:39:19.948Z,49.50
2022-09-10T12:41:46.489Z,49.60
2022-09-10T12:44:28.337Z,49.50
2022-09-10T12:47:13.695Z,49.60
2022-09-10T12:49:46.540Z,49.50
2022-09-10T12:52:13.806Z,49.50
2022-09-10T12:55:00.219Z,49.50
2022-09-10T12:57:37.309Z,49.70
2022-09-10T13:00:31.483Z,49.60
2022-09-10T13:03:15.527Z,49.60
2022-09-10T13:05:45.023Z,49.50
2022-09-10T13:08:27.954Z,49.60
2022-09-10T13:10:58.816Z,49.50
2022-09-10T13:14:16.596Z,49.50
2022-09-10T13:16:43.324Z,49.40
2022-09-10T13:19:12.600Z,49.40
2022-09-10T13:21:45.063Z,49.40
2022-09-10T13:24:33.758Z,49.40
2022-09-10T13:27:22.727Z,49.40
2022-09-10T13:30:22.064Z,49.40
2022-09-10T13:33:00.121Z,49.40
2022-09-10T13:35:59.769Z,49.40
2022-09-10T13:39:00.920Z,49.40
2022-09-10T13:41:41.847Z,49.40
2022-09-10T13:44:39.963Z,49.40
2022-09-10T13:47:12.425Z,49.40
2022-09-10T13:50:00.253Z,49.40
2022-09-10T13:52:34.480Z,49.40
2022-09-10T13:55:01.089Z,49.40
2022-09-10T13:57:30.060Z,49.40
2022-09-10T14:00:08.719Z,49.40
2022-09-10T14:02:52.808Z,49.30
2022-09-10T14:05:40.940Z,49.30
2022-09-10T14:08:19.444Z,49.30
2022-09-10T14:10:52.205Z,49.20
2022-09-10T14:13:28.278Z,49.20
2022-09-10T14:15:55.861Z,49.20
2022-09-10T14:18:31.235Z,49.20
2022-09-10T14:20:58.540Z,49.20
2022-09-10T14:23:25.121Z,49.20
2022-09-10T14:26:07.819Z,49.20
2022-09-10T14:28:34.609Z,49.20
2022-09-10T14:31:40.017Z,49.30
2022-09-10T14:34:39.027Z,49.30
2022-09-10T14:37:25.624Z,49.30
2022-09-10T14:39:52.238Z,49.30
2022-09-10T14:42:27.004Z,49.30
2022-09-10T14:44:54.265Z,49.30
2022-09-10T14:47:29.604Z,49.20
2022-09-10T14:50:25.672Z,49.30
2022-09-10T14:52:52.244Z,49.20
2022-09-10T14:55:18.833Z,49.20
2022-09-10T14:57:45.424Z,49.20
2022-09-10T15:00:15.397Z,49.20
2022-09-10T15:02:41.964Z,49.20
2022-09-10T15:05:17.300Z,49.20
2022-09-10T15:07:45.186Z,49.20
2022-09-10T15:10:12.015Z,49.20
2022-09-10T15:12:40.457Z,49.30
2022-09-10T15:15:16.478Z,49.40
2022-09-10T15:17:44.138Z,49.40
2022-09-10T15:20:14.826Z,49.40
2022-09-10T15:22:41.429Z,49.50
2022-09-10T15:25:11.664Z,49.50
2022-09-10T15:27:38.482Z,49.50
2022-09-10T15:30:06.003Z,49.50
2022-09-10T15:32:32.657Z,49.50
2022-09-10T15:34:59.280Z,49.50
2022-09-10T15:37:25.930Z,49.50
2022-09-10T15:39:53.057Z,49.40
2022-09-10T15:42:19.668Z,49.40
2022-09-10T15:44:46.244Z,49.40
2022-09-10T15:47:12.814Z,49.40
2022-09-10T15:49:39.387Z,49.40
2022-09-10T15:52:05.975Z,49.40
2022-09-10T15:54:33.853Z,49.40
2022-09-10T15:57:01.150Z,49.50
2022-09-10T15:59:28.403Z,49.50
2022-09-10T16:01:55.025Z,49.50
2022-09-10T16:04:21.825Z,49.50
2022-09-10T16:06:48.393Z,49.50
2022-09-10T16:09:15.075Z,49.40
2022-09-10T16:11:41.921Z,49.40
2022-09-10T16:14:11.171Z,49.40
2022-09-10T16:16:37.829Z,49.40
2022-09-10T16:19:05.370Z,49.30
2022-09-10T16:21:33.784Z,49.40
2022-09-10T16:24:00.681Z,49.40
2022-09-10T16:26:31.779Z,50.00
2022-09-10T16:28:59.584Z,49.30
2022-09-10T16:31:30.702Z,49.30
2022-09-10T16:33:58.908Z,49.20
2022-09-10T16:36:26.220Z,49.20
2022-09-10T16:38:54.313Z,49.30
2022-09-10T16:41:21.151Z,49.20
2022-09-10T16:43:47.744Z,49.30
2022-09-10T16:46:14.433Z,49.30
2022-09-10T16:48:42.771Z,49.40
2022-09-10T16:51:14.188Z,49.30
2022-09-10T16:53:42.176Z,49.30
2022-09-10T16:56:09.840Z,49.40
2022-09-10T16:58:36.795Z,49.40
2022-09-10T17:01:04.503Z,49.50
2022-09-10T17:03:31.282Z,49.50
2022-09-10T17:05:58.549Z,49.40
2022-09-10T17:08:25.971Z,49.50
2022-09-10T17:10:52.635Z,49.50
2022-09-10T17:13:19.388Z,49.50
2022-09-10T17:15:46.241Z,49.50
2022-09-10T17:18:13.012Z,49.40
2022-09-10T17:20:40.488Z,49.40
2022-09-10T17:23:07.546Z,49.40
2022-09-10T17:25:34.479Z,49.30
2022-09-10T17:28:01.948Z,49.30
2022-09-10T17:30:28.572Z,49.30
2022-09-10T17:32:55.181Z,49.30
2022-09-10T17:35:21.800Z,49.30
2022-09-10T17:37:48.395Z,49.30
2022-09-10T17:40:15.134Z,49.30
2022-09-10T17:42:42.193Z,49.30
2022-09-10T17:45:10.005Z,49.30
2022-09-10T17:47:36.583Z,49.30
2022-09-10T17:50:03.205Z,49.30
2022-09-10T17:52:29.772Z,49.30
2022-09-10T17:54:57.689Z,49.30
2022-09-10T17:57:24.333Z,49.30
2022-09-10T17:59:50.911Z,49.40
2022-09-10T18:02:18.269Z,49.50
2022-09-10T18:04:47.891Z,49.50
2022-09-10T18:07:14.466Z,49.50
2022-09-10T18:09:41.055Z,49.50
2022-09-10T18:12:08.158Z,49.50
2022-09-10T18:14:34.868Z,49.50
2022-09-10T18:17:01.437Z,49.60
2022-09-10T18:19:28.007Z,49.60
2022-09-10T18:21:54.599Z,49.60
2022-09-10T18:24:25.133Z,49.50
2022-09-10T18:26:53.705Z,49.50
2022-09-10T18:29:27.032Z,49.40
2022-09-10T18:31:55.643Z,49.40
2022-09-10T18:34:24.284Z,49.40
2022-09-10T18:36:54.529Z,49.40
2022-09-10T18:39:21.933Z,49.30
2022-09-10T18:41:48.496Z,49.30
2022-09-10T18:44:18.056Z,49.30
2022-09-10T18:46:45.375Z,49.40
2022-09-10T18:49:16.707Z,49.40
2022-09-10T18:51:45.852Z,49.40
2022-09-10T18:54:13.423Z,49.30
2022-09-10T18:56:40.209Z,49.40
2022-09-10T18:59:08.942Z,49.30
2022-09-10T19:01:36.659Z,49.40
2022-09-10T19:04:05.476Z,49.30
2022-09-10T19:06:32.898Z,49.30
2022-09-10T19:09:01.288Z,49.30
2022-09-10T19:11:32.854Z,49.30
2022-09-10T19:14:00.137Z,49.40
2022-09-10T19:16:28.552Z,49.30
2022-09-10T19:18:59.864Z,49.40
2022-09-10T19:21:27.289Z,49.40
2022-09-10T19:23:59.527Z,49.40
2022-09-10T19:26:28.445Z,49.40
2022-09-10T19:28:58.653Z,49.50
2022-09-10T19:31:25.728Z,49.50
2022-09-10T19:34:00.329Z,49.40
2022-09-10T19:36:35.179Z,49.40
2022-09-10T19:39:04.784Z,49.30
2022-09-10T19:41:31.399Z,49.30
2022-09-10T19:43:57.983Z,49.30
2022-09-10T19:46:28.097Z,49.30
2022-09-10T19:48:55.600Z,49.30
2022-09-10T19:51:22.193Z,49.30
2022-09-10T19:53:49.443Z,49.30
2022-09-10T19:56:20.714Z,49.30
2022-09-10T19:58:49.601Z,49.30
2022-09-10T20:01:20.902Z,49.30
2022-09-10T20:03:48.124Z,49.30
2022-09-10T20:06:18.233Z,49.30
2022-09-10T20:08:45.422Z,49.30
2022-09-10T20:11:15.761Z,49.30
2022-09-10T20:13:42.465Z,49.30
2022-09-10T20:16:09.741Z,49.30
2022-09-10T20:18:36.391Z,49.30
2022-09-10T20:21:16.661Z,49.40
2022-09-10T20:23:47.428Z,49.50
2022-09-10T20:26:17.579Z,49.60
2022-09-10T20:28:44.265Z,49.60
2022-09-10T20:31:11.970Z,49.60
2022-09-10T20:33:39.728Z,49.50
2022-09-10T20:36:10.721Z,49.60
2022-09-10T20:38:38.180Z,49.60
2022-09-10T20:41:06.948Z,49.60
2022-09-10T20:43:34.192Z,49.70
2022-09-10T20:46:01.339Z,49.60
2022-09-10T20:48:28.005Z,49.50
2022-09-10T20:50:56.376Z,49.40
2022-09-10T20:53:22.964Z,49.30
2022-09-10T20:55:49.981Z,49.30
2022-09-10T20:58:16.616Z,49.20
2022-09-10T21:00:43.203Z,49.30
2022-09-10T21:03:10.029Z,49.20
2022-09-10T21:05:36.598Z,49.30
2022-09-10T21:08:04.060Z,49.20
2022-09-10T21:10:30.675Z,49.20
2022-09-10T21:12:57.276Z,49.20
2022-09-10T21:15:23.839Z,49.20
2022-09-10T21:17:50.624Z,49.20
2022-09-10T21:20:17.354Z,49.20
2022-09-10T21:22:44.636Z,49.20
2022-09-10T21:25:11.218Z,49.20
2022-09-10T21:27:37.806Z,49.20
2022-09-10T21:30:04.735Z,49.30
2022-09-10T21:32:31.311Z,49.40
2022-09-10T21:34:58.241Z,49.40
2022-09-10T21:37:25.297Z,49.40
2022-09-10T21:39:51.890Z,49.40
2022-09-10T21:42:18.525Z,49.50
2022-09-10T21:44:45.095Z,49.50
2022-09-10T21:47:11.711Z,49.50
2022-09-10T21:49:38.573Z,49.50
2022-09-10T21:52:05.180Z,49.50
2022-09-10T21:54:31.781Z,49.50
2022-09-10T21:56:58.365Z,49.50
2022-09-10T21:59:26.670Z,49.40
2022-09-10T22:01:54.314Z,49.40
2022-09-10T22:04:23.051Z,49.30
2022-09-10T22:06:50.189Z,49.30
2022-09-10T22:09:16.807Z,49.20
2022-09-10T22:11:46.636Z,49.20
2022-09-10T22:14:14.938Z,49.20
2022-09-10T22:16:41.516Z,49.20
2022-09-10T22:19:15.957Z,49.20
2022-09-10T22:21:42.560Z,49.20
2022-09-10T22:24:09.575Z,49.20
2022-09-10T22:26:38.191Z,49.20
2022-09-10T22:29:04.769Z,49.20
2022-09-10T22:31:32.780Z,49.20
2022-09-10T22:34:11.080Z,49.20
2022-09-10T22:36:39.009Z,49.20
2022-09-10T22:39:07.664Z,49.20
2022-09-10T22:41:35.257Z,49.20
2022-09-10T22:44:02.292Z,49.30
2022-09-10T22:46:29.116Z,49.30
2022-09-10T22:48:56.181Z,49.30
2022-09-10T22:51:24.654Z,49.30
2022-09-10T22:53:52.424Z,49.30
2022-09-10T22:56:19.601Z,49.30
2022-09-10T22:58:46.648Z,49.30
2022-09-10T23:01:14.829Z,49.40
2022-09-10T23:03:41.721Z,49.40
2022-09-10T23:06:14.766Z,49.40
2022-09-10T23:08:42.758Z,49.30
2022-09-10T23:11:13.205Z,49.20
2022-09-10T23:13:39.787Z,49.20
2022-09-10T23:16:11.334Z,49.20
2022-09-10T23:18:39.539Z,49.20
2022-09-10T23:21:06.829Z,49.20
2022-09-10T23:23:33.513Z,49.20
2022-09-10T23:26:07.270Z,49.10
2022-09-10T23:28:33.889Z,49.20
2022-09-10T23:31:13.871Z,49.20
2022-09-10T23:33:44.665Z,49.20
2022-09-10T23:36:14.521Z,49.20
2022-09-10T23:38:41.935Z,49.10
2022-09-10T23:41:08.659Z,49.10
2022-09-10T23:43:35.663Z,49.10
2022-09-10T23:46:02.390Z,49.20
2022-09-10T23:48:29.625Z,49.20
2022-09-10T23:50:57.012Z,49.20
2022-09-10T23:53:24.965Z,49.30
2022-09-10T23:55:51.764Z,49.20
2022-09-10T23:58:19.809Z,49.30
